Stations météo

réclame
Mon MeteoGroup
Puerto Leitariegos, Espagne (8052): Température de l'air & dewpoint: 13.11.2017 20:00:00 - 19.11.2017 20:00:00 (CET)Puerto Leitariegos, Espagne (8052): Vitesse du vent & gusts: 13.11.2017 20:00:00 - 19.11.2017 20:00:00 (CET)Puerto Leitariegos, Espagne (8052): Direction du vent: 13.11.2017 20:00:00 - 19.11.2017 20:00:00 (CET)Puerto Leitariegos, Espagne (8052): visibility: 13.11.2017 20:00:00 - 19.11.2017 20:00:00 (CET)Puerto Leitariegos, Espagne (8052): Ensoleillement: 13.11.2017 20:00:00 - 19.11.2017 20:00:00 (CET)Puerto Leitariegos, Espagne (8052): Quantités de précipitations: 13.11.2017 20:00:00 - 19.11.2017 20:00:00 (CET)
Date & Time tt [°C] td [°C] ff [km/h] ff [knt] fx [km/h] fx [knt] dd vv [km] sd [min] rr [mm]
19.11.2017 20:00:00 5,2 -3,3 2 1 11 6 E 20 0 0,0
19.11.2017 19:00:00 6,2 -3,3 5 3 17 9 NNW 20 0 -
19.11.2017 18:00:00 - - - - - - - - - -
19.11.2017 17:00:00 8,1 -2,7 9 5 14 8 NW 20 0 0,0
19.11.2017 16:00:00 9,4 -3,9 10 6 15 8 WNW 20 31 0,0
19.11.2017 15:00:00 11,9 -2,5 11 6 14 8 NW 20 60 0,0
19.11.2017 14:00:00 13,8 -6,0 6 4 15 8 W 20 60 0,0
19.11.2017 13:00:00 13,8 -6,4 9 5 14 8 SE 20 60 -
19.11.2017 12:00:00 12,7 -6,4 10 6 14 7 SE 20 60 0,0
19.11.2017 11:00:00 11,0 -5,4 8 4 - - SE 20 60 0,0
19.11.2017 10:00:00 - - - - - - - - - -
19.11.2017 09:00:00 4,1 -8,2 1 1 5 3 ENE 20 5 0,0
19.11.2017 08:00:00 3,5 -8,2 4 2 8 4 SE 20 0 0,0
19.11.2017 07:00:00 2,9 -8,6 1 1 6 3 NNE 20 0 -
19.11.2017 06:00:00 3,1 -8,6 1 1 5 3 ENE 20 0 0,0
19.11.2017 05:00:00 3,7 -9,0 0 0 10 6 N 20 0 0,0
19.11.2017 04:00:00 - - - - - - - - - -
19.11.2017 03:00:00 4,4 -8,2 8 4 12 7 NW 20 0 0,0
19.11.2017 02:00:00 4,1 -7,5 0 0 4 2 N 20 0 0,0
19.11.2017 01:00:00 4,5 -7,5 2 1 11 6 N 20 0 -
19.11.2017 00:00:00 - - - - - - - - - -
18.11.2017 23:00:00 4,5 -5,1 2 1 8 5 NNE 20 0 0,0
18.11.2017 22:00:00 5,1 -4,8 6 3 10 5 SE 20 0 0,0
18.11.2017 21:00:00 - - - - - - - - - -
18.11.2017 20:00:00 5,8 -5,4 2 1 14 8 N 20 0 0,0
18.11.2017 19:00:00 - - - - - - - - - -
18.11.2017 18:00:00 6,7 -2,5 12 6 16 9 WNW 20 0 0,0
18.11.2017 17:00:00 - - - - - - - - - -
18.11.2017 16:00:00 8,2 -1,7 8 5 14 7 NW 20 32 0,0
18.11.2017 15:00:00 11,8 -1,4 9 5 14 8 NW 20 60 0,0
18.11.2017 14:00:00 - - - - - - - - - -
18.11.2017 13:00:00 12,7 -3,6 9 5 16 9 SE 20 60 -
18.11.2017 12:00:00 11,6 -3,0 10 6 16 9 SSE 20 60 0,0
18.11.2017 11:00:00 10,0 -0,5 7 4 10 6 SE 20 60 0,0
18.11.2017 10:00:00 7,5 -1,7 4 2 6 3 SE 20 60 0,0
18.11.2017 09:00:00 - - - - - - - - - -
18.11.2017 08:00:00 2,5 -4,2 3 2 6 3 SSE 20 0 0,0
18.11.2017 07:00:00 - - - - - - - - - -
18.11.2017 06:00:00 3,3 -3,6 1 1 5 3 ENE 20 0 0,0
18.11.2017 05:00:00 3,6 -3,0 1 1 8 5 NE 20 0 0,0
18.11.2017 04:00:00 4,4 -3,0 6 4 10 5 SE 20 0 0,0
18.11.2017 03:00:00 5,6 -2,5 6 3 12 7 S 20 0 0,0
18.11.2017 02:00:00 5,3 -2,0 6 3 11 6 S 20 0 0,0
18.11.2017 01:00:00 5,0 -2,2 5 3 8 5 SE 20 0 -
18.11.2017 00:00:00 - - - - - - - - - -
17.11.2017 23:00:00 6,1 -1,7 5 3 14 8 SSE 20 0 0,0
17.11.2017 22:00:00 - - - - - - - - - -
17.11.2017 21:00:00 5,1 -1,2 4 2 8 5 S 20 0 0,0
17.11.2017 20:00:00 - - - - - - - - - -
17.11.2017 19:00:00 6,4 -1,4 8 5 14 8 NW 20 0 -
17.11.2017 18:00:00 7,1 -1,4 8 5 18 10 NW 20 0 0,0
17.11.2017 17:00:00 - - - - - - - - - -
17.11.2017 16:00:00 9,7 -0,3 16 9 22 12 WNW 20 34 0,0
17.11.2017 15:00:00 11,6 -0,3 12 6 16 9 NW 20 60 0,0
17.11.2017 14:00:00 - - - - - - - - - -
17.11.2017 13:00:00 12,3 -1,0 8 5 12 6 NW 20 60 -
17.11.2017 12:00:00 12,7 -2,0 6 4 11 6 SE 20 60 0,0
17.11.2017 11:00:00 - - - - - - - - - -
17.11.2017 10:00:00 8,5 -0,5 4 2 7 4 SE 20 60 0,0
17.11.2017 09:00:00 4,8 -2,7 1 1 5 3 NE 20 8 0,0
17.11.2017 08:00:00 4,1 -3,3 2 1 5 3 NW 20 0 0,0
17.11.2017 07:00:00 - - - - - - - - - -
17.11.2017 06:00:00 4,5 -3,0 1 1 7 4 E 20 0 0,0
17.11.2017 05:00:00 - - - - - - - - - -
17.11.2017 04:00:00 5,1 -1,4 1 1 9 5 S 20 0 0,0
17.11.2017 03:00:00 - - - - - - - - - -
17.11.2017 02:00:00 6,0 -1,7 5 3 10 5 SE 20 0 0,0
17.11.2017 01:00:00 - - - - - - - - - -
17.11.2017 00:00:00 5,8 -0,7 2 1 9 5 SSE 20 0 0,0
16.11.2017 23:00:00 - - - - - - - - - -
16.11.2017 22:00:00 5,5 -0,7 3 2 8 5 S 20 0 0,0
16.11.2017 21:00:00 - - - - - - - - - -
16.11.2017 20:00:00 6,7 -0,7 7 4 12 7 NNW 20 0 0,0
16.11.2017 19:00:00 - - - - - - - - - -
16.11.2017 18:00:00 7,8 0,6 9 5 - - NW 20 0 0,0
16.11.2017 17:00:00 8,5 2,3 - - - - - 20 0 0,0
16.11.2017 16:00:00 9,1 1,7 13 7 18 10 NW 20 35 0,0
16.11.2017 15:00:00 - - - - - - - - - -
16.11.2017 14:00:00 - - - - - - - - - -
16.11.2017 13:00:00 14,1 -0,5 7 4 14 8 W 20 60 -
16.11.2017 12:00:00 13,4 -1,4 9 5 13 7 SE 20 60 0,0
16.11.2017 11:00:00 - - - - - - - - - -
16.11.2017 10:00:00 9,4 -0,5 3 2 5 3 SE 20 60 0,0
16.11.2017 09:00:00 - - - - - - - - - -
16.11.2017 08:00:00 4,5 -3,9 2 1 5 3 SSE 20 0 0,0
16.11.2017 07:00:00 4,4 -3,6 3 1 6 4 SE 20 0 -
16.11.2017 06:00:00 5,4 -3,3 1 1 9 5 N 20 0 0,0
16.11.2017 05:00:00 5,7 -3,6 4 2 12 6 S 20 0 0,0
16.11.2017 04:00:00 - - - - - - - - - -
16.11.2017 03:00:00 6,3 -2,2 8 4 12 6 SE 20 0 0,0
16.11.2017 02:00:00 6,4 -1,7 8 4 10 6 SE 20 0 0,0
16.11.2017 01:00:00 - - - - - - - - - -
16.11.2017 00:00:00 6,9 -1,0 7 4 14 8 SSE 20 0 0,0
15.11.2017 23:00:00 7,5 -0,7 10 5 16 8 SSE 20 0 0,0
15.11.2017 22:00:00 7,2 0,2 9 5 14 7 S 20 0 0,0
15.11.2017 21:00:00 - - - - - - - - - -
15.11.2017 20:00:00 5,9 0,2 2 1 11 6 ENE 20 0 0,0
15.11.2017 19:00:00 - - - - - - - - - -
15.11.2017 18:00:00 7,5 0,9 13 7 19 11 WNW 20 0 0,0
15.11.2017 17:00:00 - - - - - - - - - -
15.11.2017 16:00:00 9,4 1,1 9 5 15 8 NW 20 37 0,0
15.11.2017 15:00:00 12,4 -0,3 11 6 15 8 NW 20 60 0,0
15.11.2017 14:00:00 - - - - - - - - - -
15.11.2017 13:00:00 - - - - - - - - - -
15.11.2017 12:00:00 13,0 -2,2 7 4 13 7 SE 20 60 0,0
15.11.2017 11:00:00 - - - - - - - - - -
15.11.2017 10:00:00 9,0 -1,7 10 6 17 9 SE 20 55 0,0
15.11.2017 09:00:00 6,2 -2,5 10 5 19 11 S 20 0 0,0
15.11.2017 08:00:00 - - - - - - - - - -
15.11.2017 07:00:00 7,1 -3,6 8 4 14 8 SSE 20 0 -
15.11.2017 06:00:00 - - - - - - - - - -
15.11.2017 05:00:00 8,3 -3,3 9 5 14 8 S 20 0 0,0
15.11.2017 04:00:00 7,9 -2,7 8 4 15 8 S 20 0 0,0
15.11.2017 03:00:00 8,0 -1,7 11 6 16 9 S 20 0 0,0
15.11.2017 02:00:00 8,1 -1,2 10 6 15 8 S 20 0 0,0
15.11.2017 01:00:00 - - - - - - - - - -
15.11.2017 00:00:00 8,0 -1,0 9 5 14 8 SSE 20 0 0,0
14.11.2017 23:00:00 7,6 0,2 8 4 13 7 S 20 0 0,0
14.11.2017 22:00:00 - - - - - - - - - -
14.11.2017 21:00:00 6,9 0,9 7 4 11 6 SE 20 0 0,0
14.11.2017 20:00:00 5,9 0,4 1 1 6 3 SE 20 0 0,0
14.11.2017 19:00:00 - - - - - - - - - -
14.11.2017 18:00:00 8,6 0,9 10 6 19 10 WNW 20 0 0,0
14.11.2017 17:00:00 - - - - - - - - - -
14.11.2017 16:00:00 9,7 2,1 8 4 16 9 NW 20 38 0,0
14.11.2017 15:00:00 12,2 2,3 9 5 15 8 NW 20 60 0,0
14.11.2017 14:00:00 14,5 1,5 8 5 22 12 SE 20 60 0,0
14.11.2017 13:00:00 - - - - - - - - - -
14.11.2017 12:00:00 12,9 1,3 13 7 21 11 SE 20 60 0,0
14.11.2017 11:00:00 11,1 0,2 14 8 21 11 SE 20 60 0,0
14.11.2017 10:00:00 - - - - - - - - - -
14.11.2017 09:00:00 5,9 -2,5 6 3 9 5 SE 20 10 0,0
14.11.2017 08:00:00 - - - - - - - - - -
14.11.2017 07:00:00 3,9 -4,5 5 3 9 5 SSE 20 0 -
14.11.2017 06:00:00 - - - - - - - - - -
14.11.2017 05:00:00 4,1 -9,9 8 5 14 7 S 20 0 0,0
14.11.2017 04:00:00 1,9 -9,0 3 2 10 5 NW 20 0 0,0
14.11.2017 03:00:00 - - - - - - - - - -
14.11.2017 02:00:00 -0,7 -6,7 9 5 12 6 SE 20 0 0,0
14.11.2017 01:00:00 -2,2 -4,8 7 4 13 7 SE 20 0 -
14.11.2017 00:00:00 -2,3 -4,5 7 4 12 6 SE 20 0 0,0
13.11.2017 23:00:00 -1,4 -4,5 5 3 11 6 SSE 20 0 0,0
13.11.2017 22:00:00 -1,6 -4,2 5 3 11 6 SE 20 0 0,0
13.11.2017 21:00:00 -1,1 -3,9 4 2 11 6 SE 20 0 0,0
13.11.2017 20:00:00 -1,2 -2,0 7 4 15 8 NNW - 0 0,0

tt = Température de l'air
td = dewpoint
ff = Vitesse du vent
fx = gusts
dd = Direction du vent
vv = visibility
sd = Ensoleillement
rr = Quantités de précipitations

stations d'obs. à proximité